Metar GG30 METAR message from awiacja.imgw.pl Metar G30 EPWA METAR EPWA 240430Z 13007KT 0900 0800W R33/1100N FG VV002 12/12 Q1016 TEMPO 0600=